sensor_id;sensor_type;location;lat;lon;timestamp;temperature;humidity
6373;DHT22;3219;51.362;7.074;2022-12-20T00:00:31;8.80;99.90
6373;DHT22;3219;51.362;7.074;2022-12-20T00:02:59;8.90;99.90
6373;DHT22;3219;51.362;7.074;2022-12-20T00:05:26;8.90;99.90
6373;DHT22;3219;51.362;7.074;2022-12-20T00:07:52;8.90;99.90
6373;DHT22;3219;51.362;7.074;2022-12-20T00:10:19;8.90;99.90
6373;DHT22;3219;51.362;7.074;2022-12-20T00:12:46;8.90;99.90
6373;DHT22;3219;51.362;7.074;2022-12-20T00:15:15;9.00;99.90
6373;DHT22;3219;51.362;7.074;2022-12-20T00:17:42;9.00;99.90
6373;DHT22;3219;51.362;7.074;2022-12-20T00:20:10;9.00;99.90
6373;DHT22;3219;51.362;7.074;2022-12-20T00:22:37;9.10;99.90
6373;DHT22;3219;51.362;7.074;2022-12-20T00:25:05;9.10;99.90
6373;DHT22;3219;51.362;7.074;2022-12-20T00:27:32;9.00;99.90
6373;DHT22;3219;51.362;7.074;2022-12-20T00:29:59;9.10;99.90
6373;DHT22;3219;51.362;7.074;2022-12-20T00:32:27;9.10;99.90
6373;DHT22;3219;51.362;7.074;2022-12-20T00:34:54;9.20;99.90
6373;DHT22;3219;51.362;7.074;2022-12-20T00:37:21;9.20;99.90
6373;DHT22;3219;51.362;7.074;2022-12-20T00:39:48;9.10;99.90
6373;DHT22;3219;51.362;7.074;2022-12-20T00:42:15;9.10;99.90
6373;DHT22;3219;51.362;7.074;2022-12-20T00:44:42;9.00;99.90
6373;DHT22;3219;51.362;7.074;2022-12-20T00:47:09;8.90;99.90
6373;DHT22;3219;51.362;7.074;2022-12-20T00:49:38;8.90;99.90
6373;DHT22;3219;51.362;7.074;2022-12-20T00:52:05;8.90;99.90
6373;DHT22;3219;51.362;7.074;2022-12-20T00:54:32;8.90;99.90
6373;DHT22;3219;51.362;7.074;2022-12-20T00:56:59;9.00;99.90
6373;DHT22;3219;51.362;7.074;2022-12-20T00:59:26;8.90;99.90
6373;DHT22;3219;51.362;7.074;2022-12-20T01:01:53;8.90;99.90
6373;DHT22;3219;51.362;7.074;2022-12-20T01:04:20;9.00;99.90
6373;DHT22;3219;51.362;7.074;2022-12-20T01:06:48;9.00;99.90
6373;DHT22;3219;51.362;7.074;2022-12-20T01:09:15;9.00;99.90
6373;DHT22;3219;51.362;7.074;2022-12-20T01:11:42;9.10;99.90
6373;DHT22;3219;51.362;7.074;2022-12-20T01:14:12;9.10;99.90
6373;DHT22;3219;51.362;7.074;2022-12-20T01:16:41;9.20;99.90
6373;DHT22;3219;51.362;7.074;2022-12-20T01:19:10;9.20;99.90
6373;DHT22;3219;51.362;7.074;2022-12-20T01:21:38;9.20;99.90
6373;DHT22;3219;51.362;7.074;2022-12-20T01:24:10;9.20;99.90
6373;DHT22;3219;51.362;7.074;2022-12-20T01:26:37;9.10;99.90
6373;DHT22;3219;51.362;7.074;2022-12-20T01:29:05;9.10;99.90
6373;DHT22;3219;51.362;7.074;2022-12-20T01:31:32;9.20;99.90
6373;DHT22;3219;51.362;7.074;2022-12-20T01:33:59;9.10;99.90
6373;DHT22;3219;51.362;7.074;2022-12-20T01:36:29;9.10;99.90
6373;DHT22;3219;51.362;7.074;2022-12-20T01:38:56;9.20;99.90
6373;DHT22;3219;51.362;7.074;2022-12-20T01:41:27;9.20;99.90
6373;DHT22;3219;51.362;7.074;2022-12-20T01:43:56;9.20;99.90
6373;DHT22;3219;51.362;7.074;2022-12-20T01:46:25;9.20;99.90
6373;DHT22;3219;51.362;7.074;2022-12-20T01:48:56;9.20;99.90
6373;DHT22;3219;51.362;7.074;2022-12-20T01:51:28;9.20;99.90
6373;DHT22;3219;51.362;7.074;2022-12-20T01:54:01;9.20;99.90
6373;DHT22;3219;51.362;7.074;2022-12-20T01:56:31;9.20;99.90
6373;DHT22;3219;51.362;7.074;2022-12-20T01:58:58;9.20;99.90
6373;DHT22;3219;51.362;7.074;2022-12-20T02:01:26;9.20;99.90
6373;DHT22;3219;51.362;7.074;2022-12-20T02:03:54;9.20;99.90
6373;DHT22;3219;51.362;7.074;2022-12-20T02:06:22;9.20;99.90
6373;DHT22;3219;51.362;7.074;2022-12-20T02:08:52;9.20;99.90
6373;DHT22;3219;51.362;7.074;2022-12-20T02:11:36;9.20;99.90
6373;DHT22;3219;51.362;7.074;2022-12-20T02:14:16;9.20;99.90
6373;DHT22;3219;51.362;7.074;2022-12-20T02:16:47;9.20;99.90
6373;DHT22;3219;51.362;7.074;2022-12-20T02:19:29;9.20;99.90
6373;DHT22;3219;51.362;7.074;2022-12-20T02:22:14;9.20;99.90
6373;DHT22;3219;51.362;7.074;2022-12-20T02:25:24;9.10;99.90
6373;DHT22;3219;51.362;7.074;2022-12-20T02:28:01;9.10;99.90
6373;DHT22;3219;51.362;7.074;2022-12-20T02:30:34;9.10;99.90
6373;DHT22;3219;51.362;7.074;2022-12-20T02:33:05;9.10;99.90
6373;DHT22;3219;51.362;7.074;2022-12-20T02:35:35;9.10;99.90
6373;DHT22;3219;51.362;7.074;2022-12-20T02:40:46;9.10;99.90
6373;DHT22;3219;51.362;7.074;2022-12-20T02:43:13;9.00;99.90
6373;DHT22;3219;51.362;7.074;2022-12-20T02:45:57;9.00;99.90
6373;DHT22;3219;51.362;7.074;2022-12-20T02:48:28;9.00;99.90
6373;DHT22;3219;51.362;7.074;2022-12-20T02:50:56;9.00;99.90
6373;DHT22;3219;51.362;7.074;2022-12-20T02:53:24;9.10;99.90
6373;DHT22;3219;51.362;7.074;2022-12-20T02:56:00;9.00;99.90
6373;DHT22;3219;51.362;7.074;2022-12-20T02:58:35;9.00;99.90
6373;DHT22;3219;51.362;7.074;2022-12-20T03:01:10;9.00;99.90
6373;DHT22;3219;51.362;7.074;2022-12-20T03:03:40;9.00;99.90
6373;DHT22;3219;51.362;7.074;2022-12-20T03:06:07;9.00;99.90
6373;DHT22;3219;51.362;7.074;2022-12-20T03:08:34;9.00;99.90
6373;DHT22;3219;51.362;7.074;2022-12-20T03:11:01;9.00;99.90
6373;DHT22;3219;51.362;7.074;2022-12-20T03:13:28;9.00;99.90
6373;DHT22;3219;51.362;7.074;2022-12-20T03:15:56;9.00;99.90
6373;DHT22;3219;51.362;7.074;2022-12-20T03:18:24;9.00;99.90
6373;DHT22;3219;51.362;7.074;2022-12-20T03:20:51;9.00;99.90
6373;DHT22;3219;51.362;7.074;2022-12-20T03:23:19;9.00;99.90
6373;DHT22;3219;51.362;7.074;2022-12-20T03:25:46;9.00;99.90
6373;DHT22;3219;51.362;7.074;2022-12-20T03:28:13;9.00;99.90
6373;DHT22;3219;51.362;7.074;2022-12-20T03:30:41;9.00;99.90
6373;DHT22;3219;51.362;7.074;2022-12-20T03:33:08;9.00;99.90
6373;DHT22;3219;51.362;7.074;2022-12-20T03:35:37;9.00;99.90
6373;DHT22;3219;51.362;7.074;2022-12-20T03:38:04;9.00;99.90
6373;DHT22;3219;51.362;7.074;2022-12-20T03:40:31;9.00;99.90
6373;DHT22;3219;51.362;7.074;2022-12-20T03:42:58;9.00;99.90
6373;DHT22;3219;51.362;7.074;2022-12-20T03:45:25;9.00;99.90
6373;DHT22;3219;51.362;7.074;2022-12-20T03:47:52;9.00;99.90
6373;DHT22;3219;51.362;7.074;2022-12-20T03:50:19;9.00;99.90
6373;DHT22;3219;51.362;7.074;2022-12-20T03:52:48;8.90;99.90
6373;DHT22;3219;51.362;7.074;2022-12-20T03:55:15;8.90;99.90
6373;DHT22;3219;51.362;7.074;2022-12-20T03:57:42;8.90;99.90
6373;DHT22;3219;51.362;7.074;2022-12-20T04:02:41;8.80;99.90
6373;DHT22;3219;51.362;7.074;2022-12-20T04:05:08;8.80;99.90
6373;DHT22;3219;51.362;7.074;2022-12-20T04:07:35;8.80;99.90
6373;DHT22;3219;51.362;7.074;2022-12-20T04:10:05;8.80;99.90
6373;DHT22;3219;51.362;7.074;2022-12-20T04:12:32;8.80;99.90
6373;DHT22;3219;51.362;7.074;2022-12-20T04:15:00;8.80;99.90
6373;DHT22;3219;51.362;7.074;2022-12-20T04:17:27;8.80;99.90
6373;DHT22;3219;51.362;7.074;2022-12-20T04:19:54;8.80;99.90
6373;DHT22;3219;51.362;7.074;2022-12-20T04:22:21;8.70;99.90
6373;DHT22;3219;51.362;7.074;2022-12-20T04:24:48;8.80;99.90
6373;DHT22;3219;51.362;7.074;2022-12-20T04:27:17;8.70;99.90
6373;DHT22;3219;51.362;7.074;2022-12-20T04:29:44;8.70;99.90
6373;DHT22;3219;51.362;7.074;2022-12-20T04:32:11;8.70;99.90
6373;DHT22;3219;51.362;7.074;2022-12-20T04:34:38;8.70;99.90
6373;DHT22;3219;51.362;7.074;2022-12-20T04:37:05;8.70;99.90
6373;DHT22;3219;51.362;7.074;2022-12-20T04:39:32;8.70;99.90
6373;DHT22;3219;51.362;7.074;2022-12-20T04:41:59;8.70;99.90
6373;DHT22;3219;51.362;7.074;2022-12-20T04:44:27;8.70;99.90
6373;DHT22;3219;51.362;7.074;2022-12-20T04:46:54;8.70;99.90
6373;DHT22;3219;51.362;7.074;2022-12-20T04:49:21;8.60;99.90
6373;DHT22;3219;51.362;7.074;2022-12-20T04:51:48;8.60;99.90
6373;DHT22;3219;51.362;7.074;2022-12-20T04:54:15;8.60;99.90
6373;DHT22;3219;51.362;7.074;2022-12-20T04:56:41;8.60;99.90
6373;DHT22;3219;51.362;7.074;2022-12-20T04:59:08;8.60;99.90
6373;DHT22;3219;51.362;7.074;2022-12-20T05:01:37;8.60;99.90
6373;DHT22;3219;51.362;7.074;2022-12-20T05:04:04;8.60;99.90
6373;DHT22;3219;51.362;7.074;2022-12-20T05:06:31;8.60;99.90
6373;DHT22;3219;51.362;7.074;2022-12-20T05:08:58;8.60;99.90
6373;DHT22;3219;51.362;7.074;2022-12-20T05:11:25;8.60;99.90
6373;DHT22;3219;51.362;7.074;2022-12-20T05:13:52;8.50;99.90
6373;DHT22;3219;51.362;7.074;2022-12-20T05:16:19;8.50;99.90
6373;DHT22;3219;51.362;7.074;2022-12-20T05:18:48;8.60;99.90
6373;DHT22;3219;51.362;7.074;2022-12-20T05:21:15;8.60;99.90
6373;DHT22;3219;51.362;7.074;2022-12-20T05:23:59;8.60;99.90
6373;DHT22;3219;51.362;7.074;2022-12-20T05:26:44;8.50;99.90
6373;DHT22;3219;51.362;7.074;2022-12-20T05:29:11;8.60;99.90
6373;DHT22;3219;51.362;7.074;2022-12-20T05:31:38;8.50;99.90
6373;DHT22;3219;51.362;7.074;2022-12-20T05:34:06;8.60;99.90
6373;DHT22;3219;51.362;7.074;2022-12-20T05:36:33;8.60;99.90
6373;DHT22;3219;51.362;7.074;2022-12-20T05:39:00;8.50;99.90
6373;DHT22;3219;51.362;7.074;2022-12-20T05:41:27;8.60;99.90
6373;DHT22;3219;51.362;7.074;2022-12-20T05:43:54;8.60;99.90
6373;DHT22;3219;51.362;7.074;2022-12-20T05:46:21;8.60;99.90
6373;DHT22;3219;51.362;7.074;2022-12-20T05:48:48;8.60;99.90
6373;DHT22;3219;51.362;7.074;2022-12-20T05:51:16;8.60;99.90
6373;DHT22;3219;51.362;7.074;2022-12-20T05:53:43;8.60;99.90
6373;DHT22;3219;51.362;7.074;2022-12-20T05:56:10;8.60;99.90
6373;DHT22;3219;51.362;7.074;2022-12-20T05:58:38;8.60;99.90
6373;DHT22;3219;51.362;7.074;2022-12-20T06:01:06;8.60;99.90
6373;DHT22;3219;51.362;7.074;2022-12-20T06:03:33;8.60;99.90
6373;DHT22;3219;51.362;7.074;2022-12-20T06:06:00;8.60;99.90
6373;DHT22;3219;51.362;7.074;2022-12-20T06:08:29;8.70;99.90
6373;DHT22;3219;51.362;7.074;2022-12-20T06:10:56;8.70;99.90
6373;DHT22;3219;51.362;7.074;2022-12-20T06:13:23;8.70;99.90
6373;DHT22;3219;51.362;7.074;2022-12-20T06:15:50;8.70;99.90
6373;DHT22;3219;51.362;7.074;2022-12-20T06:18:17;8.80;99.90
6373;DHT22;3219;51.362;7.074;2022-12-20T06:20:49;8.80;99.90
6373;DHT22;3219;51.362;7.074;2022-12-20T06:23:16;8.80;99.90
6373;DHT22;3219;51.362;7.074;2022-12-20T06:25:44;8.80;99.90
6373;DHT22;3219;51.362;7.074;2022-12-20T06:28:11;8.80;99.90
6373;DHT22;3219;51.362;7.074;2022-12-20T06:30:38;8.80;99.90
6373;DHT22;3219;51.362;7.074;2022-12-20T06:33:05;8.80;99.90
6373;DHT22;3219;51.362;7.074;2022-12-20T06:35:32;8.80;99.90
6373;DHT22;3219;51.362;7.074;2022-12-20T06:37:59;8.90;99.90
6373;DHT22;3219;51.362;7.074;2022-12-20T06:40:26;8.80;99.90
6373;DHT22;3219;51.362;7.074;2022-12-20T06:42:55;8.80;99.90
6373;DHT22;3219;51.362;7.074;2022-12-20T06:45:22;8.90;99.90
6373;DHT22;3219;51.362;7.074;2022-12-20T06:47:49;8.80;99.90
6373;DHT22;3219;51.362;7.074;2022-12-20T06:50:16;8.90;99.90
6373;DHT22;3219;51.362;7.074;2022-12-20T06:52:43;8.90;99.90
6373;DHT22;3219;51.362;7.074;2022-12-20T06:55:10;8.90;99.90
6373;DHT22;3219;51.362;7.074;2022-12-20T06:57:37;8.90;99.90
6373;DHT22;3219;51.362;7.074;2022-12-20T07:00:06;8.90;99.90
6373;DHT22;3219;51.362;7.074;2022-12-20T07:02:35;8.90;99.90
6373;DHT22;3219;51.362;7.074;2022-12-20T07:05:02;9.00;99.90
6373;DHT22;3219;51.362;7.074;2022-12-20T07:07:29;9.00;99.90
6373;DHT22;3219;51.362;7.074;2022-12-20T07:09:57;8.90;99.90
6373;DHT22;3219;51.362;7.074;2022-12-20T07:12:24;9.00;99.90
6373;DHT22;3219;51.362;7.074;2022-12-20T07:14:51;9.00;99.90
6373;DHT22;3219;51.362;7.074;2022-12-20T07:17:19;9.00;99.90
6373;DHT22;3219;51.362;7.074;2022-12-20T07:19:46;9.00;99.90
6373;DHT22;3219;51.362;7.074;2022-12-20T07:22:13;9.00;99.90
6373;DHT22;3219;51.362;7.074;2022-12-20T07:24:40;9.00;99.90
6373;DHT22;3219;51.362;7.074;2022-12-20T07:27:09;9.00;99.90
6373;DHT22;3219;51.362;7.074;2022-12-20T07:29:36;9.00;99.90
6373;DHT22;3219;51.362;7.074;2022-12-20T07:32:05;9.00;99.90
6373;DHT22;3219;51.362;7.074;2022-12-20T07:34:35;9.00;99.90
6373;DHT22;3219;51.362;7.074;2022-12-20T07:37:02;9.00;99.90
6373;DHT22;3219;51.362;7.074;2022-12-20T07:39:29;9.00;99.90
6373;DHT22;3219;51.362;7.074;2022-12-20T07:41:56;9.00;99.90
6373;DHT22;3219;51.362;7.074;2022-12-20T07:44:23;9.00;99.90
6373;DHT22;3219;51.362;7.074;2022-12-20T07:46:50;9.00;99.90
6373;DHT22;3219;51.362;7.074;2022-12-20T07:49:17;9.00;99.90
6373;DHT22;3219;51.362;7.074;2022-12-20T07:51:48;9.00;99.90
6373;DHT22;3219;51.362;7.074;2022-12-20T07:54:18;9.00;99.90
6373;DHT22;3219;51.362;7.074;2022-12-20T07:56:49;9.00;99.90
6373;DHT22;3219;51.362;7.074;2022-12-20T07:59:20;9.00;99.90
6373;DHT22;3219;51.362;7.074;2022-12-20T08:01:48;9.00;99.90
6373;DHT22;3219;51.362;7.074;2022-12-20T08:04:18;9.00;99.90
6373;DHT22;3219;51.362;7.074;2022-12-20T08:06:49;9.10;99.90
6373;DHT22;3219;51.362;7.074;2022-12-20T08:09:18;9.00;99.90
6373;DHT22;3219;51.362;7.074;2022-12-20T08:11:47;9.00;99.90
6373;DHT22;3219;51.362;7.074;2022-12-20T08:14:16;9.00;99.90
6373;DHT22;3219;51.362;7.074;2022-12-20T08:16:43;9.10;99.90
6373;DHT22;3219;51.362;7.074;2022-12-20T08:19:11;9.10;99.90
6373;DHT22;3219;51.362;7.074;2022-12-20T08:21:38;9.10;99.90
6373;DHT22;3219;51.362;7.074;2022-12-20T08:24:06;9.10;99.90
6373;DHT22;3219;51.362;7.074;2022-12-20T08:26:37;9.10;99.90
6373;DHT22;3219;51.362;7.074;2022-12-20T08:29:04;9.10;99.90
6373;DHT22;3219;51.362;7.074;2022-12-20T08:31:31;9.20;99.90
6373;DHT22;3219;51.362;7.074;2022-12-20T08:33:58;9.20;99.90
6373;DHT22;3219;51.362;7.074;2022-12-20T08:36:25;9.20;99.90
6373;DHT22;3219;51.362;7.074;2022-12-20T08:38:51;9.30;99.90
6373;DHT22;3219;51.362;7.074;2022-12-20T08:41:20;9.20;99.90
6373;DHT22;3219;51.362;7.074;2022-12-20T08:43:47;9.20;99.90
6373;DHT22;3219;51.362;7.074;2022-12-20T08:46:14;9.30;99.90
6373;DHT22;3219;51.362;7.074;2022-12-20T08:48:41;9.30;99.90
6373;DHT22;3219;51.362;7.074;2022-12-20T08:51:10;9.30;99.90
6373;DHT22;3219;51.362;7.074;2022-12-20T08:53:38;9.40;99.90
6373;DHT22;3219;51.362;7.074;2022-12-20T08:56:07;9.40;99.90
6373;DHT22;3219;51.362;7.074;2022-12-20T08:58:36;9.40;99.90
6373;DHT22;3219;51.362;7.074;2022-12-20T09:01:05;9.50;99.90
6373;DHT22;3219;51.362;7.074;2022-12-20T09:03:33;9.50;99.90
6373;DHT22;3219;51.362;7.074;2022-12-20T09:06:03;9.50;99.90
6373;DHT22;3219;51.362;7.074;2022-12-20T09:08:31;9.50;99.90
6373;DHT22;3219;51.362;7.074;2022-12-20T09:11:03;9.50;99.90
6373;DHT22;3219;51.362;7.074;2022-12-20T09:13:30;9.50;99.90
6373;DHT22;3219;51.362;7.074;2022-12-20T09:16:01;9.50;99.90
6373;DHT22;3219;51.362;7.074;2022-12-20T09:18:29;9.60;99.90
6373;DHT22;3219;51.362;7.074;2022-12-20T09:20:58;9.50;99.90
6373;DHT22;3219;51.362;7.074;2022-12-20T09:23:26;9.50;99.90
6373;DHT22;3219;51.362;7.074;2022-12-20T09:25:53;9.60;99.90
6373;DHT22;3219;51.362;7.074;2022-12-20T09:28:21;9.60;99.90
6373;DHT22;3219;51.362;7.074;2022-12-20T09:30:48;9.60;99.90
6373;DHT22;3219;51.362;7.074;2022-12-20T09:33:17;9.60;99.90
6373;DHT22;3219;51.362;7.074;2022-12-20T09:35:44;9.50;99.90
6373;DHT22;3219;51.362;7.074;2022-12-20T09:38:11;9.60;99.90
6373;DHT22;3219;51.362;7.074;2022-12-20T09:40:44;9.60;99.90
6373;DHT22;3219;51.362;7.074;2022-12-20T09:43:11;9.60;99.90
6373;DHT22;3219;51.362;7.074;2022-12-20T09:45:39;9.60;99.90
6373;DHT22;3219;51.362;7.074;2022-12-20T09:48:09;9.60;99.90
6373;DHT22;3219;51.362;7.074;2022-12-20T09:50:46;9.60;99.90
6373;DHT22;3219;51.362;7.074;2022-12-20T09:53:22;9.60;99.90
6373;DHT22;3219;51.362;7.074;2022-12-20T09:55:57;9.70;99.90
6373;DHT22;3219;51.362;7.074;2022-12-20T09:58:39;9.70;99.90
6373;DHT22;3219;51.362;7.074;2022-12-20T10:01:15;9.70;99.90
6373;DHT22;3219;51.362;7.074;2022-12-20T10:03:43;9.80;99.90
6373;DHT22;3219;51.362;7.074;2022-12-20T10:06:16;9.80;99.90
6373;DHT22;3219;51.362;7.074;2022-12-20T10:08:50;9.80;99.90
6373;DHT22;3219;51.362;7.074;2022-12-20T10:11:36;9.90;99.90
6373;DHT22;3219;51.362;7.074;2022-12-20T10:14:15;9.90;99.90
6373;DHT22;3219;51.362;7.074;2022-12-20T10:16:45;9.90;99.90
6373;DHT22;3219;51.362;7.074;2022-12-20T10:22:08;9.90;99.90
6373;DHT22;3219;51.362;7.074;2022-12-20T10:24:40;9.90;99.90
6373;DHT22;3219;51.362;7.074;2022-12-20T10:27:13;9.90;99.90
6373;DHT22;3219;51.362;7.074;2022-12-20T10:29:40;9.90;99.90
6373;DHT22;3219;51.362;7.074;2022-12-20T10:32:12;9.90;99.90
6373;DHT22;3219;51.362;7.074;2022-12-20T10:34:45;9.90;99.90
6373;DHT22;3219;51.362;7.074;2022-12-20T10:37:17;9.90;99.90
6373;DHT22;3219;51.362;7.074;2022-12-20T10:39:46;9.90;99.90
6373;DHT22;3219;51.362;7.074;2022-12-20T10:42:27;9.90;99.90
6373;DHT22;3219;51.362;7.074;2022-12-20T10:44:56;9.90;99.90
6373;DHT22;3219;51.362;7.074;2022-12-20T10:47:40;9.90;99.90
6373;DHT22;3219;51.362;7.074;2022-12-20T10:50:13;10.00;99.90
6373;DHT22;3219;51.362;7.074;2022-12-20T10:52:43;10.00;99.90
6373;DHT22;3219;51.362;7.074;2022-12-20T10:55:33;10.00;99.90
6373;DHT22;3219;51.362;7.074;2022-12-20T10:58:03;10.00;99.90
6373;DHT22;3219;51.362;7.074;2022-12-20T11:00:31;10.00;99.90
6373;DHT22;3219;51.362;7.074;2022-12-20T11:03:06;10.00;99.90
6373;DHT22;3219;51.362;7.074;2022-12-20T11:05:33;10.10;99.90
6373;DHT22;3219;51.362;7.074;2022-12-20T11:08:08;10.10;99.90
6373;DHT22;3219;51.362;7.074;2022-12-20T11:10:38;10.10;99.90
6373;DHT22;3219;51.362;7.074;2022-12-20T11:13:05;10.10;99.90
6373;DHT22;3219;51.362;7.074;2022-12-20T11:15:34;10.10;99.90
6373;DHT22;3219;51.362;7.074;2022-12-20T11:18:05;10.10;99.90
6373;DHT22;3219;51.362;7.074;2022-12-20T11:20:39;10.20;99.90
6373;DHT22;3219;51.362;7.074;2022-12-20T11:23:20;10.20;99.90
6373;DHT22;3219;51.362;7.074;2022-12-20T11:26:04;10.30;99.90
6373;DHT22;3219;51.362;7.074;2022-12-20T11:28:47;10.30;99.90
6373;DHT22;3219;51.362;7.074;2022-12-20T11:31:24;10.30;99.90
6373;DHT22;3219;51.362;7.074;2022-12-20T11:34:05;10.40;99.90
6373;DHT22;3219;51.362;7.074;2022-12-20T11:36:51;10.40;99.90
6373;DHT22;3219;51.362;7.074;2022-12-20T11:39:29;10.40;99.90
6373;DHT22;3219;51.362;7.074;2022-12-20T11:42:04;10.40;99.90
6373;DHT22;3219;51.362;7.074;2022-12-20T11:44:48;10.40;99.90
6373;DHT22;3219;51.362;7.074;2022-12-20T11:47:46;10.50;99.90
6373;DHT22;3219;51.362;7.074;2022-12-20T11:50:45;10.50;99.90
6373;DHT22;3219;51.362;7.074;2022-12-20T11:53:19;10.50;99.90
6373;DHT22;3219;51.362;7.074;2022-12-20T11:55:51;10.40;99.90
6373;DHT22;3219;51.362;7.074;2022-12-20T11:58:25;10.50;99.90
6373;DHT22;3219;51.362;7.074;2022-12-20T12:00:56;10.50;99.90
6373;DHT22;3219;51.362;7.074;2022-12-20T12:03:29;10.50;99.90
6373;DHT22;3219;51.362;7.074;2022-12-20T12:06:02;10.50;99.90
6373;DHT22;3219;51.362;7.074;2022-12-20T12:08:31;10.50;99.90
6373;DHT22;3219;51.362;7.074;2022-12-20T12:11:07;10.50;99.90
6373;DHT22;3219;51.362;7.074;2022-12-20T12:13:39;10.50;99.90
6373;DHT22;3219;51.362;7.074;2022-12-20T12:16:10;10.50;99.90
6373;DHT22;3219;51.362;7.074;2022-12-20T12:18:39;10.50;99.90
6373;DHT22;3219;51.362;7.074;2022-12-20T12:21:12;10.50;99.90
6373;DHT22;3219;51.362;7.074;2022-12-20T12:23:47;10.60;99.90
6373;DHT22;3219;51.362;7.074;2022-12-20T12:26:19;10.60;99.90
6373;DHT22;3219;51.362;7.074;2022-12-20T12:28:52;10.60;99.90
6373;DHT22;3219;51.362;7.074;2022-12-20T12:31:24;10.60;99.90
6373;DHT22;3219;51.362;7.074;2022-12-20T12:34:05;10.70;99.90
6373;DHT22;3219;51.362;7.074;2022-12-20T12:36:48;10.60;99.90
6373;DHT22;3219;51.362;7.074;2022-12-20T12:39:44;10.70;99.90
6373;DHT22;3219;51.362;7.074;2022-12-20T12:45:15;10.70;99.90
6373;DHT22;3219;51.362;7.074;2022-12-20T12:47:50;10.70;99.90
6373;DHT22;3219;51.362;7.074;2022-12-20T12:50:23;10.70;99.90
6373;DHT22;3219;51.362;7.074;2022-12-20T12:52:53;10.70;99.90
6373;DHT22;3219;51.362;7.074;2022-12-20T12:55:36;10.70;99.90
6373;DHT22;3219;51.362;7.074;2022-12-20T13:01:09;10.60;99.90
6373;DHT22;3219;51.362;7.074;2022-12-20T13:04:09;10.60;99.90
6373;DHT22;3219;51.362;7.074;2022-12-20T13:09:45;10.50;99.90
6373;DHT22;3219;51.362;7.074;2022-12-20T13:15:49;10.40;99.90
6373;DHT22;3219;51.362;7.074;2022-12-20T13:18:27;10.40;99.90
6373;DHT22;3219;51.362;7.074;2022-12-20T13:21:23;10.30;99.90
6373;DHT22;3219;51.362;7.074;2022-12-20T13:26:56;10.20;99.90
6373;DHT22;3219;51.362;7.074;2022-12-20T13:29:25;10.20;99.90
6373;DHT22;3219;51.362;7.074;2022-12-20T13:31:54;10.10;99.90
6373;DHT22;3219;51.362;7.074;2022-12-20T13:34:41;10.00;99.90
6373;DHT22;3219;51.362;7.074;2022-12-20T13:37:25;10.00;99.90
6373;DHT22;3219;51.362;7.074;2022-12-20T13:39:52;10.00;99.90
6373;DHT22;3219;51.362;7.074;2022-12-20T13:42:36;10.00;99.90
6373;DHT22;3219;51.362;7.074;2022-12-20T13:45:08;10.00;99.90
6373;DHT22;3219;51.362;7.074;2022-12-20T13:47:43;9.90;99.90
6373;DHT22;3219;51.362;7.074;2022-12-20T13:50:25;9.90;99.90
6373;DHT22;3219;51.362;7.074;2022-12-20T13:52:53;9.90;99.90
6373;DHT22;3219;51.362;7.074;2022-12-20T13:55:26;9.90;99.90
6373;DHT22;3219;51.362;7.074;2022-12-20T13:57:57;9.90;99.90
6373;DHT22;3219;51.362;7.074;2022-12-20T14:00:29;9.90;99.90
6373;DHT22;3219;51.362;7.074;2022-12-20T14:02:59;9.80;99.90
6373;DHT22;3219;51.362;7.074;2022-12-20T14:05:32;9.80;99.90
6373;DHT22;3219;51.362;7.074;2022-12-20T14:08:01;9.80;99.90
6373;DHT22;3219;51.362;7.074;2022-12-20T14:10:31;9.80;99.90
6373;DHT22;3219;51.362;7.074;2022-12-20T14:12:58;9.80;99.90
6373;DHT22;3219;51.362;7.074;2022-12-20T14:15:27;9.70;99.90
6373;DHT22;3219;51.362;7.074;2022-12-20T14:17:56;9.70;99.90
6373;DHT22;3219;51.362;7.074;2022-12-20T14:20:28;9.80;99.90
6373;DHT22;3219;51.362;7.074;2022-12-20T14:22:59;9.70;99.90
6373;DHT22;3219;51.362;7.074;2022-12-20T14:25:32;9.70;99.90
6373;DHT22;3219;51.362;7.074;2022-12-20T14:28:00;9.60;99.90
6373;DHT22;3219;51.362;7.074;2022-12-20T14:30:33;9.60;99.90
6373;DHT22;3219;51.362;7.074;2022-12-20T14:33:02;9.60;99.90
6373;DHT22;3219;51.362;7.074;2022-12-20T14:35:29;9.60;99.90
6373;DHT22;3219;51.362;7.074;2022-12-20T14:37:59;9.60;99.90
6373;DHT22;3219;51.362;7.074;2022-12-20T14:40:27;9.60;99.90
6373;DHT22;3219;51.362;7.074;2022-12-20T14:42:55;9.60;99.90
6373;DHT22;3219;51.362;7.074;2022-12-20T14:45:24;9.60;99.90
6373;DHT22;3219;51.362;7.074;2022-12-20T14:47:57;9.60;99.90
6373;DHT22;3219;51.362;7.074;2022-12-20T14:50:31;9.60;99.90
6373;DHT22;3219;51.362;7.074;2022-12-20T14:52:59;9.60;99.90
6373;DHT22;3219;51.362;7.074;2022-12-20T14:55:31;9.70;99.90
6373;DHT22;3219;51.362;7.074;2022-12-20T14:57:58;9.70;99.90
6373;DHT22;3219;51.362;7.074;2022-12-20T15:00:28;9.70;99.90
6373;DHT22;3219;51.362;7.074;2022-12-20T15:03:02;9.70;99.90
6373;DHT22;3219;51.362;7.074;2022-12-20T15:05:48;9.70;99.90
6373;DHT22;3219;51.362;7.074;2022-12-20T15:08:18;9.70;99.90
6373;DHT22;3219;51.362;7.074;2022-12-20T15:10:59;9.70;99.90
6373;DHT22;3219;51.362;7.074;2022-12-20T15:13:30;9.60;99.90
6373;DHT22;3219;51.362;7.074;2022-12-20T15:15:58;9.60;99.90
6373;DHT22;3219;51.362;7.074;2022-12-20T15:18:26;9.60;99.90
6373;DHT22;3219;51.362;7.074;2022-12-20T15:21:01;9.60;99.90
6373;DHT22;3219;51.362;7.074;2022-12-20T15:23:29;9.50;99.90
6373;DHT22;3219;51.362;7.074;2022-12-20T15:25:57;9.50;99.90
6373;DHT22;3219;51.362;7.074;2022-12-20T15:28:25;9.50;99.90
6373;DHT22;3219;51.362;7.074;2022-12-20T15:30:52;9.50;99.90
6373;DHT22;3219;51.362;7.074;2022-12-20T15:33:22;9.50;99.90
6373;DHT22;3219;51.362;7.074;2022-12-20T15:35:50;9.50;99.90
6373;DHT22;3219;51.362;7.074;2022-12-20T15:38:21;9.50;99.90
6373;DHT22;3219;51.362;7.074;2022-12-20T15:40:51;9.50;99.90
6373;DHT22;3219;51.362;7.074;2022-12-20T15:43:20;9.50;99.90
6373;DHT22;3219;51.362;7.074;2022-12-20T15:45:50;9.50;99.90
6373;DHT22;3219;51.362;7.074;2022-12-20T15:48:20;9.50;99.90
6373;DHT22;3219;51.362;7.074;2022-12-20T15:50:49;9.50;99.90
6373;DHT22;3219;51.362;7.074;2022-12-20T15:53:19;9.50;99.90
6373;DHT22;3219;51.362;7.074;2022-12-20T15:55:49;9.50;99.90
6373;DHT22;3219;51.362;7.074;2022-12-20T15:58:16;9.60;99.90
6373;DHT22;3219;51.362;7.074;2022-12-20T16:00:44;9.50;99.90
6373;DHT22;3219;51.362;7.074;2022-12-20T16:03:16;9.50;99.90
6373;DHT22;3219;51.362;7.074;2022-12-20T16:05:44;9.50;99.90
6373;DHT22;3219;51.362;7.074;2022-12-20T16:08:10;9.50;99.90
6373;DHT22;3219;51.362;7.074;2022-12-20T16:10:39;9.50;99.90
6373;DHT22;3219;51.362;7.074;2022-12-20T16:13:06;9.40;99.90
6373;DHT22;3219;51.362;7.074;2022-12-20T16:15:36;9.40;99.90
6373;DHT22;3219;51.362;7.074;2022-12-20T16:18:03;9.50;99.90
6373;DHT22;3219;51.362;7.074;2022-12-20T16:20:30;9.40;99.90
6373;DHT22;3219;51.362;7.074;2022-12-20T16:22:57;9.50;99.90
6373;DHT22;3219;51.362;7.074;2022-12-20T16:25:26;9.50;99.90
6373;DHT22;3219;51.362;7.074;2022-12-20T16:27:55;9.50;99.90
6373;DHT22;3219;51.362;7.074;2022-12-20T16:30:25;9.50;99.90
6373;DHT22;3219;51.362;7.074;2022-12-20T16:32:52;9.50;99.90
6373;DHT22;3219;51.362;7.074;2022-12-20T16:35:24;9.50;99.90
6373;DHT22;3219;51.362;7.074;2022-12-20T16:37:53;9.40;99.90
6373;DHT22;3219;51.362;7.074;2022-12-20T16:40:20;9.40;99.90
6373;DHT22;3219;51.362;7.074;2022-12-20T16:42:48;9.40;99.90
6373;DHT22;3219;51.362;7.074;2022-12-20T16:45:19;9.40;99.90
6373;DHT22;3219;51.362;7.074;2022-12-20T16:47:47;9.40;99.90
6373;DHT22;3219;51.362;7.074;2022-12-20T16:50:15;9.40;99.90
6373;DHT22;3219;51.362;7.074;2022-12-20T16:52:43;9.40;99.90
6373;DHT22;3219;51.362;7.074;2022-12-20T16:55:13;9.50;99.90
6373;DHT22;3219;51.362;7.074;2022-12-20T16:57:42;9.50;99.90